sensor_id;sensor_type;location;lat;lon;timestamp;P1;durP1;ratioP1;P2;durP2;ratioP2
64252;SDS011;50592;52.958;-7.470;2023-03-16T00:02:09;0.20;;;0.20;;
64252;SDS011;50592;52.958;-7.470;2023-03-16T00:04:40;1.35;;;0.20;;
64252;SDS011;50592;52.958;-7.470;2023-03-16T00:07:07;1.67;;;0.10;;
64252;SDS011;50592;52.958;-7.470;2023-03-16T00:09:39;0.90;;;0.20;;
64252;SDS011;50592;52.958;-7.470;2023-03-16T00:12:14;0.10;;;0.10;;
64252;SDS011;50592;52.958;-7.470;2023-03-16T00:14:42;0.10;;;0.10;;
64252;SDS011;50592;52.958;-7.470;2023-03-16T00:17:13;0.10;;;0.10;;
64252;SDS011;50592;52.958;-7.470;2023-03-16T00:19:48;0.10;;;0.10;;
64252;SDS011;50592;52.958;-7.470;2023-03-16T00:22:25;0.20;;;0.20;;
64252;SDS011;50592;52.958;-7.470;2023-03-16T00:24:58;0.38;;;0.10;;
64252;SDS011;50592;52.958;-7.470;2023-03-16T00:27:28;0.28;;;0.28;;
64252;SDS011;50592;52.958;-7.470;2023-03-16T00:29:54;0.73;;;0.65;;
64252;SDS011;50592;52.958;-7.470;2023-03-16T00:32:27;0.25;;;0.20;;
64252;SDS011;50592;52.958;-7.470;2023-03-16T00:34:57;0.55;;;0.10;;
64252;SDS011;50592;52.958;-7.470;2023-03-16T00:37:29;1.10;;;0.17;;
64252;SDS011;50592;52.958;-7.470;2023-03-16T00:39:58;0.20;;;0.10;;
64252;SDS011;50592;52.958;-7.470;2023-03-16T00:42:29;0.73;;;0.20;;
64252;SDS011;50592;52.958;-7.470;2023-03-16T00:44:57;0.30;;;0.10;;
64252;SDS011;50592;52.958;-7.470;2023-03-16T00:47:29;0.90;;;0.20;;
64252;SDS011;50592;52.958;-7.470;2023-03-16T00:49:58;0.52;;;0.10;;
64252;SDS011;50592;52.958;-7.470;2023-03-16T00:52:28;0.10;;;0.10;;
64252;SDS011;50592;52.958;-7.470;2023-03-16T00:54:56;0.10;;;0.10;;
64252;SDS011;50592;52.958;-7.470;2023-03-16T00:57:28;0.65;;;0.20;;
64252;SDS011;50592;52.958;-7.470;2023-03-16T00:59:58;0.85;;;0.20;;
64252;SDS011;50592;52.958;-7.470;2023-03-16T01:02:36;0.50;;;0.10;;
64252;SDS011;50592;52.958;-7.470;2023-03-16T01:05:03;0.35;;;0.10;;
64252;SDS011;50592;52.958;-7.470;2023-03-16T01:07:33;0.50;;;0.40;;
64252;SDS011;50592;52.958;-7.470;2023-03-16T01:10:02;1.75;;;0.13;;
64252;SDS011;50592;52.958;-7.470;2023-03-16T01:12:31;0.25;;;0.10;;
64252;SDS011;50592;52.958;-7.470;2023-03-16T01:14:59;0.65;;;0.15;;
64252;SDS011;50592;52.958;-7.470;2023-03-16T01:17:28;0.52;;;0.10;;
64252;SDS011;50592;52.958;-7.470;2023-03-16T01:19:55;1.92;;;0.15;;
64252;SDS011;50592;52.958;-7.470;2023-03-16T01:22:24;1.08;;;0.20;;
64252;SDS011;50592;52.958;-7.470;2023-03-16T01:24:50;1.38;;;0.20;;
64252;SDS011;50592;52.958;-7.470;2023-03-16T01:27:22;0.82;;;0.20;;
64252;SDS011;50592;52.958;-7.470;2023-03-16T01:29:53;1.42;;;0.20;;
64252;SDS011;50592;52.958;-7.470;2023-03-16T01:32:23;2.00;;;0.10;;
64252;SDS011;50592;52.958;-7.470;2023-03-16T01:34:53;2.88;;;0.30;;
64252;SDS011;50592;52.958;-7.470;2023-03-16T01:37:21;6.55;;;0.90;;
64252;SDS011;50592;52.958;-7.470;2023-03-16T01:39:58;3.40;;;0.38;;
64252;SDS011;50592;52.958;-7.470;2023-03-16T01:42:25;8.55;;;0.68;;
64252;SDS011;50592;52.958;-7.470;2023-03-16T01:44:56;7.10;;;0.88;;
64252;SDS011;50592;52.958;-7.470;2023-03-16T01:47:36;8.02;;;0.85;;
64252;SDS011;50592;52.958;-7.470;2023-03-16T01:50:05;7.43;;;0.95;;
64252;SDS011;50592;52.958;-7.470;2023-03-16T01:52:38;9.77;;;1.45;;
64252;SDS011;50592;52.958;-7.470;2023-03-16T01:55:07;8.57;;;1.10;;
64252;SDS011;50592;52.958;-7.470;2023-03-16T01:57:42;11.70;;;1.77;;
64252;SDS011;50592;52.958;-7.470;2023-03-16T02:00:16;9.20;;;1.08;;
64252;SDS011;50592;52.958;-7.470;2023-03-16T02:03:14;7.28;;;1.02;;
64252;SDS011;50592;52.958;-7.470;2023-03-16T02:08:56;9.48;;;1.10;;
64252;SDS011;50592;52.958;-7.470;2023-03-16T02:11:23;15.55;;;1.80;;
64252;SDS011;50592;52.958;-7.470;2023-03-16T02:14:09;6.30;;;0.98;;
64252;SDS011;50592;52.958;-7.470;2023-03-16T02:16:37;15.77;;;1.75;;
64252;SDS011;50592;52.958;-7.470;2023-03-16T02:19:10;14.52;;;1.67;;
64252;SDS011;50592;52.958;-7.470;2023-03-16T02:22:15;5.40;;;1.10;;
64252;SDS011;50592;52.958;-7.470;2023-03-16T02:24:38;9.77;;;1.33;;
64252;SDS011;50592;52.958;-7.470;2023-03-16T02:27:07;7.47;;;1.17;;
64252;SDS011;50592;52.958;-7.470;2023-03-16T02:32:30;8.57;;;0.98;;
64252;SDS011;50592;52.958;-7.470;2023-03-16T02:35:02;6.03;;;0.88;;
64252;SDS011;50592;52.958;-7.470;2023-03-16T02:37:35;9.65;;;1.13;;
64252;SDS011;50592;52.958;-7.470;2023-03-16T02:40:12;10.10;;;1.23;;
64252;SDS011;50592;52.958;-7.470;2023-03-16T02:43:03;3.65;;;0.93;;
64252;SDS011;50592;52.958;-7.470;2023-03-16T02:45:49;4.07;;;0.50;;
64252;SDS011;50592;52.958;-7.470;2023-03-16T02:48:26;4.10;;;0.50;;
64252;SDS011;50592;52.958;-7.470;2023-03-16T02:51:12;3.78;;;0.50;;
64252;SDS011;50592;52.958;-7.470;2023-03-16T02:53:43;2.30;;;0.40;;
64252;SDS011;50592;52.958;-7.470;2023-03-16T02:56:13;2.92;;;0.50;;
64252;SDS011;50592;52.958;-7.470;2023-03-16T02:58:40;2.65;;;0.20;;
64252;SDS011;50592;52.958;-7.470;2023-03-16T03:01:14;2.22;;;0.30;;
64252;SDS011;50592;52.958;-7.470;2023-03-16T03:03:41;3.85;;;0.52;;
64252;SDS011;50592;52.958;-7.470;2023-03-16T03:06:10;1.65;;;0.30;;
64252;SDS011;50592;52.958;-7.470;2023-03-16T03:08:38;2.63;;;0.40;;
64252;SDS011;50592;52.958;-7.470;2023-03-16T03:11:08;3.10;;;0.40;;
64252;SDS011;50592;52.958;-7.470;2023-03-16T03:13:38;1.45;;;0.40;;
64252;SDS011;50592;52.958;-7.470;2023-03-16T03:16:13;1.80;;;0.20;;
64252;SDS011;50592;52.958;-7.470;2023-03-16T03:18:43;1.23;;;0.40;;
64252;SDS011;50592;52.958;-7.470;2023-03-16T03:21:10;3.63;;;0.50;;
64252;SDS011;50592;52.958;-7.470;2023-03-16T03:23:40;1.42;;;0.38;;
64252;SDS011;50592;52.958;-7.470;2023-03-16T03:26:07;2.33;;;0.20;;
64252;SDS011;50592;52.958;-7.470;2023-03-16T03:28:38;1.55;;;0.20;;
64252;SDS011;50592;52.958;-7.470;2023-03-16T03:31:05;1.65;;;0.20;;
64252;SDS011;50592;52.958;-7.470;2023-03-16T03:33:35;2.30;;;0.20;;
64252;SDS011;50592;52.958;-7.470;2023-03-16T03:36:02;2.40;;;0.35;;
64252;SDS011;50592;52.958;-7.470;2023-03-16T03:38:34;2.80;;;0.20;;
64252;SDS011;50592;52.958;-7.470;2023-03-16T03:41:03;2.50;;;0.28;;
64252;SDS011;50592;52.958;-7.470;2023-03-16T03:43:34;1.13;;;0.10;;
64252;SDS011;50592;52.958;-7.470;2023-03-16T03:46:03;4.13;;;0.35;;
64252;SDS011;50592;52.958;-7.470;2023-03-16T03:48:33;2.60;;;0.30;;
64252;SDS011;50592;52.958;-7.470;2023-03-16T03:51:03;2.42;;;0.25;;
64252;SDS011;50592;52.958;-7.470;2023-03-16T03:53:34;1.60;;;0.30;;
64252;SDS011;50592;52.958;-7.470;2023-03-16T03:56:13;3.10;;;0.30;;
64252;SDS011;50592;52.958;-7.470;2023-03-16T03:58:43;3.72;;;0.52;;
64252;SDS011;50592;52.958;-7.470;2023-03-16T04:01:17;5.32;;;1.00;;
64252;SDS011;50592;52.958;-7.470;2023-03-16T04:03:44;2.53;;;0.13;;
64252;SDS011;50592;52.958;-7.470;2023-03-16T04:06:15;2.65;;;0.63;;
64252;SDS011;50592;52.958;-7.470;2023-03-16T04:08:42;1.20;;;0.30;;
64252;SDS011;50592;52.958;-7.470;2023-03-16T04:11:16;2.83;;;0.43;;
64252;SDS011;50592;52.958;-7.470;2023-03-16T04:13:46;4.32;;;0.65;;
64252;SDS011;50592;52.958;-7.470;2023-03-16T04:16:16;3.35;;;0.50;;
64252;SDS011;50592;52.958;-7.470;2023-03-16T04:18:48;2.63;;;0.40;;
64252;SDS011;50592;52.958;-7.470;2023-03-16T04:21:18;3.65;;;0.88;;
64252;SDS011;50592;52.958;-7.470;2023-03-16T04:23:49;3.05;;;0.50;;
64252;SDS011;50592;52.958;-7.470;2023-03-16T04:26:31;1.17;;;0.30;;
64252;SDS011;50592;52.958;-7.470;2023-03-16T04:28:58;8.18;;;0.80;;
64252;SDS011;50592;52.958;-7.470;2023-03-16T04:31:27;6.45;;;0.65;;
64252;SDS011;50592;52.958;-7.470;2023-03-16T04:33:54;3.72;;;0.65;;
64252;SDS011;50592;52.958;-7.470;2023-03-16T04:36:24;3.90;;;0.57;;
64252;SDS011;50592;52.958;-7.470;2023-03-16T04:38:52;4.85;;;0.50;;
64252;SDS011;50592;52.958;-7.470;2023-03-16T04:41:23;3.78;;;0.65;;
64252;SDS011;50592;52.958;-7.470;2023-03-16T04:43:58;5.18;;;0.70;;
64252;SDS011;50592;52.958;-7.470;2023-03-16T04:46:28;7.22;;;0.88;;
64252;SDS011;50592;52.958;-7.470;2023-03-16T04:49:02;3.53;;;0.60;;
64252;SDS011;50592;52.958;-7.470;2023-03-16T04:51:32;6.75;;;0.88;;
64252;SDS011;50592;52.958;-7.470;2023-03-16T04:54:08;6.63;;;0.70;;
64252;SDS011;50592;52.958;-7.470;2023-03-16T04:56:38;5.97;;;0.70;;
64252;SDS011;50592;52.958;-7.470;2023-03-16T05:01:48;5.63;;;0.43;;
64252;SDS011;50592;52.958;-7.470;2023-03-16T05:04:18;6.15;;;1.15;;
64252;SDS011;50592;52.958;-7.470;2023-03-16T05:06:49;5.85;;;0.80;;
64252;SDS011;50592;52.958;-7.470;2023-03-16T05:09:23;6.65;;;0.77;;
64252;SDS011;50592;52.958;-7.470;2023-03-16T05:11:51;5.70;;;0.88;;
64252;SDS011;50592;52.958;-7.470;2023-03-16T05:14:21;2.67;;;0.40;;
64252;SDS011;50592;52.958;-7.470;2023-03-16T05:17:07;2.78;;;0.57;;
64252;SDS011;50592;52.958;-7.470;2023-03-16T05:19:34;2.42;;;0.40;;
64252;SDS011;50592;52.958;-7.470;2023-03-16T05:22:07;2.55;;;0.40;;
64252;SDS011;50592;52.958;-7.470;2023-03-16T05:24:39;1.65;;;0.20;;
64252;SDS011;50592;52.958;-7.470;2023-03-16T05:27:10;1.48;;;0.20;;
64252;SDS011;50592;52.958;-7.470;2023-03-16T05:29:40;0.35;;;0.10;;
64252;SDS011;50592;52.958;-7.470;2023-03-16T05:32:13;0.88;;;0.20;;
64252;SDS011;50592;52.958;-7.470;2023-03-16T05:34:45;0.73;;;0.10;;
64252;SDS011;50592;52.958;-7.470;2023-03-16T05:37:12;1.63;;;0.20;;
64252;SDS011;50592;52.958;-7.470;2023-03-16T05:39:42;1.80;;;0.30;;
64252;SDS011;50592;52.958;-7.470;2023-03-16T05:42:12;0.80;;;0.15;;
64252;SDS011;50592;52.958;-7.470;2023-03-16T05:44:45;1.85;;;0.38;;
64252;SDS011;50592;52.958;-7.470;2023-03-16T05:47:28;0.05;;;0.05;;
64252;SDS011;50592;52.958;-7.470;2023-03-16T05:49:56;2.70;;;0.30;;
64252;SDS011;50592;52.958;-7.470;2023-03-16T05:52:32;1.13;;;0.20;;
64252;SDS011;50592;52.958;-7.470;2023-03-16T05:55:03;1.98;;;0.20;;
64252;SDS011;50592;52.958;-7.470;2023-03-16T05:57:34;0.90;;;0.22;;
64252;SDS011;50592;52.958;-7.470;2023-03-16T06:00:06;0.55;;;0.20;;
64252;SDS011;50592;52.958;-7.470;2023-03-16T06:02:46;2.00;;;0.20;;
64252;SDS011;50592;52.958;-7.470;2023-03-16T06:05:22;2.83;;;0.20;;
64252;SDS011;50592;52.958;-7.470;2023-03-16T06:07:50;0.52;;;0.10;;
64252;SDS011;50592;52.958;-7.470;2023-03-16T06:10:20;1.23;;;0.10;;
64252;SDS011;50592;52.958;-7.470;2023-03-16T06:12:47;2.40;;;0.30;;
64252;SDS011;50592;52.958;-7.470;2023-03-16T06:15:19;1.67;;;0.32;;
64252;SDS011;50592;52.958;-7.470;2023-03-16T06:17:52;2.88;;;0.20;;
64252;SDS011;50592;52.958;-7.470;2023-03-16T06:20:22;2.13;;;0.17;;
64252;SDS011;50592;52.958;-7.470;2023-03-16T06:22:49;0.30;;;0.10;;
64252;SDS011;50592;52.958;-7.470;2023-03-16T06:25:18;2.47;;;0.30;;
64252;SDS011;50592;52.958;-7.470;2023-03-16T06:27:45;1.23;;;0.10;;
64252;SDS011;50592;52.958;-7.470;2023-03-16T06:30:16;1.75;;;0.10;;
64252;SDS011;50592;52.958;-7.470;2023-03-16T06:32:44;1.85;;;0.28;;
64252;SDS011;50592;52.958;-7.470;2023-03-16T06:35:12;2.25;;;0.20;;
64252;SDS011;50592;52.958;-7.470;2023-03-16T06:37:47;1.40;;;0.20;;
64252;SDS011;50592;52.958;-7.470;2023-03-16T06:40:36;4.18;;;0.10;;
64252;SDS011;50592;52.958;-7.470;2023-03-16T06:43:09;1.25;;;0.20;;
64252;SDS011;50592;52.958;-7.470;2023-03-16T06:45:36;2.15;;;0.20;;
64252;SDS011;50592;52.958;-7.470;2023-03-16T06:48:05;3.33;;;0.10;;
64252;SDS011;50592;52.958;-7.470;2023-03-16T06:50:37;2.15;;;0.10;;
64252;SDS011;50592;52.958;-7.470;2023-03-16T06:53:07;1.55;;;0.20;;
64252;SDS011;50592;52.958;-7.470;2023-03-16T06:55:35;0.10;;;0.10;;
64252;SDS011;50592;52.958;-7.470;2023-03-16T06:58:05;0.75;;;0.10;;
64252;SDS011;50592;52.958;-7.470;2023-03-16T07:00:33;1.27;;;0.10;;
64252;SDS011;50592;52.958;-7.470;2023-03-16T07:03:02;0.47;;;0.10;;
64252;SDS011;50592;52.958;-7.470;2023-03-16T07:05:30;0.60;;;0.10;;
64252;SDS011;50592;52.958;-7.470;2023-03-16T07:08:00;1.33;;;0.17;;
64252;SDS011;50592;52.958;-7.470;2023-03-16T07:10:29;1.02;;;0.20;;
64252;SDS011;50592;52.958;-7.470;2023-03-16T07:13:02;0.30;;;0.17;;
64252;SDS011;50592;52.958;-7.470;2023-03-16T07:15:32;0.10;;;0.10;;
64252;SDS011;50592;52.958;-7.470;2023-03-16T07:18:04;1.52;;;0.20;;
64252;SDS011;50592;52.958;-7.470;2023-03-16T07:20:30;1.35;;;0.20;;
64252;SDS011;50592;52.958;-7.470;2023-03-16T07:23:01;0.63;;;0.03;;
64252;SDS011;50592;52.958;-7.470;2023-03-16T07:25:30;1.63;;;0.15;;
64252;SDS011;50592;52.958;-7.470;2023-03-16T07:27:59;0.65;;;0.10;;
64252;SDS011;50592;52.958;-7.470;2023-03-16T07:30:32;2.42;;;0.10;;
64252;SDS011;50592;52.958;-7.470;2023-03-16T07:33:02;0.70;;;0.10;;
64252;SDS011;50592;52.958;-7.470;2023-03-16T07:35:33;0.10;;;0.10;;
64252;SDS011;50592;52.958;-7.470;2023-03-16T07:38:03;1.17;;;0.10;;
64252;SDS011;50592;52.958;-7.470;2023-03-16T07:40:33;0.68;;;0.20;;
64252;SDS011;50592;52.958;-7.470;2023-03-16T07:43:11;0.60;;;0.10;;
64252;SDS011;50592;52.958;-7.470;2023-03-16T07:45:50;0.80;;;0.10;;
64252;SDS011;50592;52.958;-7.470;2023-03-16T07:48:20;0.63;;;0.20;;
64252;SDS011;50592;52.958;-7.470;2023-03-16T07:50:51;1.75;;;0.30;;
64252;SDS011;50592;52.958;-7.470;2023-03-16T07:53:22;0.95;;;0.20;;
64252;SDS011;50592;52.958;-7.470;2023-03-16T07:55:59;1.00;;;0.20;;
64252;SDS011;50592;52.958;-7.470;2023-03-16T07:58:32;0.65;;;0.10;;
64252;SDS011;50592;52.958;-7.470;2023-03-16T08:00:59;2.53;;;0.20;;
64252;SDS011;50592;52.958;-7.470;2023-03-16T08:03:28;1.25;;;0.20;;
64252;SDS011;50592;52.958;-7.470;2023-03-16T08:05:57;0.57;;;0.10;;
64252;SDS011;50592;52.958;-7.470;2023-03-16T08:08:27;1.80;;;0.30;;
64252;SDS011;50592;52.958;-7.470;2023-03-16T08:10:54;0.10;;;0.10;;
64252;SDS011;50592;52.958;-7.470;2023-03-16T08:13:30;5.18;;;0.45;;
64252;SDS011;50592;52.958;-7.470;2023-03-16T08:15:56;1.55;;;0.10;;
64252;SDS011;50592;52.958;-7.470;2023-03-16T08:18:35;3.08;;;0.38;;
64252;SDS011;50592;52.958;-7.470;2023-03-16T08:21:02;1.40;;;0.20;;
64252;SDS011;50592;52.958;-7.470;2023-03-16T08:23:32;1.10;;;0.20;;
64252;SDS011;50592;52.958;-7.470;2023-03-16T08:25:59;0.60;;;0.13;;
64252;SDS011;50592;52.958;-7.470;2023-03-16T08:28:29;0.47;;;0.10;;
64252;SDS011;50592;52.958;-7.470;2023-03-16T08:31:01;1.48;;;0.20;;
64252;SDS011;50592;52.958;-7.470;2023-03-16T08:33:41;0.70;;;0.17;;
64252;SDS011;50592;52.958;-7.470;2023-03-16T08:36:16;1.60;;;0.30;;
64252;SDS011;50592;52.958;-7.470;2023-03-16T08:41:17;0.75;;;0.10;;
64252;SDS011;50592;52.958;-7.470;2023-03-16T08:43:49;1.55;;;0.30;;
64252;SDS011;50592;52.958;-7.470;2023-03-16T08:46:16;2.92;;;0.10;;
64252;SDS011;50592;52.958;-7.470;2023-03-16T08:48:52;0.30;;;0.10;;
64252;SDS011;50592;52.958;-7.470;2023-03-16T08:51:22;1.70;;;0.10;;
64252;SDS011;50592;52.958;-7.470;2023-03-16T08:53:53;0.75;;;0.20;;
64252;SDS011;50592;52.958;-7.470;2023-03-16T08:56:20;0.75;;;0.15;;
64252;SDS011;50592;52.958;-7.470;2023-03-16T08:58:49;0.77;;;0.10;;
64252;SDS011;50592;52.958;-7.470;2023-03-16T09:01:17;1.52;;;0.10;;
64252;SDS011;50592;52.958;-7.470;2023-03-16T09:03:46;0.13;;;0.05;;
64252;SDS011;50592;52.958;-7.470;2023-03-16T09:06:14;0.77;;;0.10;;
64252;SDS011;50592;52.958;-7.470;2023-03-16T09:08:44;2.50;;;0.17;;
64252;SDS011;50592;52.958;-7.470;2023-03-16T09:11:14;0.85;;;0.10;;
64252;SDS011;50592;52.958;-7.470;2023-03-16T09:13:46;2.50;;;0.25;;
64252;SDS011;50592;52.958;-7.470;2023-03-16T09:16:16;0.35;;;0.10;;
64252;SDS011;50592;52.958;-7.470;2023-03-16T09:18:43;0.20;;;0.00;;
64252;SDS011;50592;52.958;-7.470;2023-03-16T09:21:13;0.50;;;0.20;;
64252;SDS011;50592;52.958;-7.470;2023-03-16T09:23:40;2.22;;;0.00;;
64252;SDS011;50592;52.958;-7.470;2023-03-16T09:26:12;0.57;;;0.10;;
64252;SDS011;50592;52.958;-7.470;2023-03-16T09:28:43;1.25;;;0.10;;
64252;SDS011;50592;52.958;-7.470;2023-03-16T09:31:18;0.80;;;0.10;;
64252;SDS011;50592;52.958;-7.470;2023-03-16T09:33:45;3.50;;;0.10;;
64252;SDS011;50592;52.958;-7.470;2023-03-16T09:36:15;0.60;;;0.10;;
64252;SDS011;50592;52.958;-7.470;2023-03-16T09:38:43;0.93;;;0.17;;
64252;SDS011;50592;52.958;-7.470;2023-03-16T09:41:25;1.30;;;0.17;;
64252;SDS011;50592;52.958;-7.470;2023-03-16T09:46:53;1.52;;;0.17;;
64252;SDS011;50592;52.958;-7.470;2023-03-16T09:49:25;1.10;;;0.17;;
64252;SDS011;50592;52.958;-7.470;2023-03-16T09:57:55;1.08;;;0.20;;
64252;SDS011;50592;52.958;-7.470;2023-03-16T10:00:25;1.02;;;0.30;;
64252;SDS011;50592;52.958;-7.470;2023-03-16T10:06:00;0.93;;;0.30;;
64252;SDS011;50592;52.958;-7.470;2023-03-16T10:08:40;2.45;;;0.55;;
64252;SDS011;50592;52.958;-7.470;2023-03-16T10:11:17;1.40;;;0.22;;
64252;SDS011;50592;52.958;-7.470;2023-03-16T10:19:20;1.85;;;0.25;;
64252;SDS011;50592;52.958;-7.470;2023-03-16T10:21:52;0.43;;;0.20;;
64252;SDS011;50592;52.958;-7.470;2023-03-16T10:24:35;1.92;;;0.65;;
64252;SDS011;50592;52.958;-7.470;2023-03-16T10:27:36;1.98;;;0.35;;
64252;SDS011;50592;52.958;-7.470;2023-03-16T10:30:26;0.88;;;0.30;;
64252;SDS011;50592;52.958;-7.470;2023-03-16T10:33:12;2.83;;;0.30;;
64252;SDS011;50592;52.958;-7.470;2023-03-16T10:35:59;3.67;;;0.40;;
64252;SDS011;50592;52.958;-7.470;2023-03-16T10:41:44;2.88;;;1.13;;
64252;SDS011;50592;52.958;-7.470;2023-03-16T10:44:21;2.35;;;0.52;;
64252;SDS011;50592;52.958;-7.470;2023-03-16T10:49:37;1.60;;;0.20;;
64252;SDS011;50592;52.958;-7.470;2023-03-16T10:55:06;1.38;;;0.40;;
64252;SDS011;50592;52.958;-7.470;2023-03-16T10:57:40;2.75;;;0.40;;
64252;SDS011;50592;52.958;-7.470;2023-03-16T11:00:15;1.77;;;0.60;;
64252;SDS011;50592;52.958;-7.470;2023-03-16T11:02:50;4.53;;;0.73;;
64252;SDS011;50592;52.958;-7.470;2023-03-16T11:10:42;2.13;;;0.45;;
64252;SDS011;50592;52.958;-7.470;2023-03-16T11:13:12;5.13;;;0.70;;
64252;SDS011;50592;52.958;-7.470;2023-03-16T11:15:54;2.53;;;0.50;;
64252;SDS011;50592;52.958;-7.470;2023-03-16T11:18:36;3.70;;;0.47;;
64252;SDS011;50592;52.958;-7.470;2023-03-16T11:23:54;1.70;;;0.40;;
64252;SDS011;50592;52.958;-7.470;2023-03-16T11:26:34;4.10;;;0.70;;
64252;SDS011;50592;52.958;-7.470;2023-03-16T11:29:13;2.05;;;0.52;;
64252;SDS011;50592;52.958;-7.470;2023-03-16T11:31:52;2.22;;;0.38;;
64252;SDS011;50592;52.958;-7.470;2023-03-16T11:34:28;0.30;;;0.23;;
64252;SDS011;50592;52.958;-7.470;2023-03-16T11:38:02;1.35;;;0.30;;
64252;SDS011;50592;52.958;-7.470;2023-03-16T11:46:24;6.43;;;1.50;;
64252;SDS011;50592;52.958;-7.470;2023-03-16T11:48:59;1.75;;;0.52;;
64252;SDS011;50592;52.958;-7.470;2023-03-16T12:06:30;3.05;;;0.47;;
64252;SDS011;50592;52.958;-7.470;2023-03-16T12:09:36;1.65;;;0.20;;
64252;SDS011;50592;52.958;-7.470;2023-03-16T12:17:53;1.40;;;0.30;;
64252;SDS011;50592;52.958;-7.470;2023-03-16T12:20:29;3.17;;;0.50;;
64252;SDS011;50592;52.958;-7.470;2023-03-16T12:23:06;1.83;;;0.45;;
64252;SDS011;50592;52.958;-7.470;2023-03-16T12:25:44;3.47;;;0.40;;
64252;SDS011;50592;52.958;-7.470;2023-03-16T12:28:23;1.00;;;0.40;;
64252;SDS011;50592;52.958;-7.470;2023-03-16T12:36:23;0.73;;;0.20;;
64252;SDS011;50592;52.958;-7.470;2023-03-16T12:39:06;1.83;;;0.30;;
64252;SDS011;50592;52.958;-7.470;2023-03-16T12:44:47;4.00;;;0.50;;
64252;SDS011;50592;52.958;-7.470;2023-03-16T12:47:25;1.85;;;0.30;;
64252;SDS011;50592;52.958;-7.470;2023-03-16T12:50:06;3.95;;;0.52;;
64252;SDS011;50592;52.958;-7.470;2023-03-16T12:52:49;1.60;;;0.30;;
64252;SDS011;50592;52.958;-7.470;2023-03-16T12:55:24;1.95;;;0.40;;
64252;SDS011;50592;52.958;-7.470;2023-03-16T12:58:08;4.32;;;0.35;;
64252;SDS011;50592;52.958;-7.470;2023-03-16T13:00:40;3.72;;;0.40;;
64252;SDS011;50592;52.958;-7.470;2023-03-16T13:03:14;3.95;;;0.60;;
64252;SDS011;50592;52.958;-7.470;2023-03-16T13:05:47;3.63;;;1.33;;
64252;SDS011;50592;52.958;-7.470;2023-03-16T13:08:20;1.65;;;0.40;;
64252;SDS011;50592;52.958;-7.470;2023-03-16T13:11:01;2.60;;;0.43;;
64252;SDS011;50592;52.958;-7.470;2023-03-16T13:13:32;2.80;;;0.50;;
64252;SDS011;50592;52.958;-7.470;2023-03-16T13:16:08;2.60;;;0.50;;
64252;SDS011;50592;52.958;-7.470;2023-03-16T13:18:48;6.18;;;1.00;;
64252;SDS011;50592;52.958;-7.470;2023-03-16T13:21:19;4.03;;;0.50;;
64252;SDS011;50592;52.958;-7.470;2023-03-16T13:26:49;5.10;;;0.85;;
64252;SDS011;50592;52.958;-7.470;2023-03-16T13:29:24;3.15;;;0.47;;
64252;SDS011;50592;52.958;-7.470;2023-03-16T13:32:05;3.15;;;0.68;;
64252;SDS011;50592;52.958;-7.470;2023-03-16T13:34:45;4.80;;;0.60;;
64252;SDS011;50592;52.958;-7.470;2023-03-16T13:37:15;2.75;;;0.60;;
64252;SDS011;50592;52.958;-7.470;2023-03-16T13:40:22;3.42;;;0.75;;
64252;SDS011;50592;52.958;-7.470;2023-03-16T13:42:42;7.77;;;1.07;;
64252;SDS011;50592;52.958;-7.470;2023-03-16T13:45:20;6.07;;;1.13;;
64252;SDS011;50592;52.958;-7.470;2023-03-16T13:47:52;5.03;;;0.70;;
64252;SDS011;50592;52.958;-7.470;2023-03-16T13:50:21;2.38;;;0.60;;
64252;SDS011;50592;52.958;-7.470;2023-03-16T13:52:55;1.63;;;0.50;;
64252;SDS011;50592;52.958;-7.470;2023-03-16T13:55:31;1.40;;;0.32;;
64252;SDS011;50592;52.958;-7.470;2023-03-16T13:58:03;4.03;;;0.77;;
64252;SDS011;50592;52.958;-7.470;2023-03-16T14:00:31;2.72;;;0.70;;
64252;SDS011;50592;52.958;-7.470;2023-03-16T14:03:13;2.70;;;0.43;;
64252;SDS011;50592;52.958;-7.470;2023-03-16T14:05:49;4.47;;;0.93;;
64252;SDS011;50592;52.958;-7.470;2023-03-16T14:08:20;4.55;;;0.70;;
64252;SDS011;50592;52.958;-7.470;2023-03-16T14:10:49;3.10;;;0.57;;
64252;SDS011;50592;52.958;-7.470;2023-03-16T14:15:56;3.10;;;0.40;;
64252;SDS011;50592;52.958;-7.470;2023-03-16T14:18:36;1.77;;;0.45;;
64252;SDS011;50592;52.958;-7.470;2023-03-16T14:21:15;3.15;;;0.47;;
64252;SDS011;50592;52.958;-7.470;2023-03-16T14:23:51;2.20;;;0.50;;
64252;SDS011;50592;52.958;-7.470;2023-03-16T14:26:25;2.25;;;0.77;;
64252;SDS011;50592;52.958;-7.470;2023-03-16T14:29:40;10.05;;;4.28;;
64252;SDS011;50592;52.958;-7.470;2023-03-16T14:31:57;5.55;;;3.67;;
64252;SDS011;50592;52.958;-7.470;2023-03-16T14:34:28;10.85;;;7.45;;
64252;SDS011;50592;52.958;-7.470;2023-03-16T14:37:06;12.90;;;10.25;;
64252;SDS011;50592;52.958;-7.470;2023-03-16T14:39:36;20.75;;;15.40;;
64252;SDS011;50592;52.958;-7.470;2023-03-16T14:42:18;18.83;;;15.07;;
64252;SDS011;50592;52.958;-7.470;2023-03-16T14:44:59;4.22;;;2.60;;
64252;SDS011;50592;52.958;-7.470;2023-03-16T14:47:40;8.43;;;5.13;;
64252;SDS011;50592;52.958;-7.470;2023-03-16T14:50:21;3.33;;;0.80;;
64252;SDS011;50592;52.958;-7.470;2023-03-16T14:52:53;3.72;;;0.60;;
64252;SDS011;50592;52.958;-7.470;2023-03-16T14:55:24;3.72;;;0.30;;
64252;SDS011;50592;52.958;-7.470;2023-03-16T14:57:54;1.48;;;0.30;;
64252;SDS011;50592;52.958;-7.470;2023-03-16T15:00:21;2.88;;;0.65;;
64252;SDS011;50592;52.958;-7.470;2023-03-16T15:05:29;4.95;;;1.80;;
64252;SDS011;50592;52.958;-7.470;2023-03-16T15:07:59;4.37;;;0.70;;
64252;SDS011;50592;52.958;-7.470;2023-03-16T15:10:30;3.10;;;0.85;;
64252;SDS011;50592;52.958;-7.470;2023-03-16T15:13:01;7.30;;;0.70;;
64252;SDS011;50592;52.958;-7.470;2023-03-16T15:15:33;6.38;;;0.93;;
64252;SDS011;50592;52.958;-7.470;2023-03-16T15:18:00;12.15;;;2.50;;
64252;SDS011;50592;52.958;-7.470;2023-03-16T15:20:31;11.02;;;2.50;;
64252;SDS011;50592;52.958;-7.470;2023-03-16T15:23:01;9.82;;;3.45;;
64252;SDS011;50592;52.958;-7.470;2023-03-16T15:25:32;12.15;;;3.35;;
64252;SDS011;50592;52.958;-7.470;2023-03-16T15:30:41;14.50;;;3.35;;
64252;SDS011;50592;52.958;-7.470;2023-03-16T15:33:10;14.15;;;4.05;;
64252;SDS011;50592;52.958;-7.470;2023-03-16T15:35:41;10.43;;;2.38;;
64252;SDS011;50592;52.958;-7.470;2023-03-16T15:38:13;13.48;;;2.45;;
64252;SDS011;50592;52.958;-7.470;2023-03-16T15:40:46;15.50;;;3.25;;
64252;SDS011;50592;52.958;-7.470;2023-03-16T15:43:19;16.23;;;2.88;;
64252;SDS011;50592;52.958;-7.470;2023-03-16T15:45:48;11.00;;;2.33;;
64252;SDS011;50592;52.958;-7.470;2023-03-16T15:48:19;8.90;;;1.80;;
64252;SDS011;50592;52.958;-7.470;2023-03-16T15:50:52;10.25;;;3.13;;
64252;SDS011;50592;52.958;-7.470;2023-03-16T15:53:31;8.82;;;1.80;;
64252;SDS011;50592;52.958;-7.470;2023-03-16T15:56:05;8.00;;;1.38;;
64252;SDS011;50592;52.958;-7.470;2023-03-16T15:58:38;12.65;;;1.95;;
64252;SDS011;50592;52.958;-7.470;2023-03-16T16:01:20;14.48;;;2.10;;
64252;SDS011;50592;52.958;-7.470;2023-03-16T16:03:55;10.53;;;2.60;;
64252;SDS011;50592;52.958;-7.470;2023-03-16T16:06:26;8.60;;;1.48;;
64252;SDS011;50592;52.958;-7.470;2023-03-16T16:08:53;10.05;;;1.48;;
64252;SDS011;50592;52.958;-7.470;2023-03-16T16:11:24;10.20;;;1.77;;
64252;SDS011;50592;52.958;-7.470;2023-03-16T16:13:56;10.30;;;1.98;;
64252;SDS011;50592;52.958;-7.470;2023-03-16T16:16:28;8.30;;;2.22;;
64252;SDS011;50592;52.958;-7.470;2023-03-16T16:18:56;13.60;;;2.17;;
64252;SDS011;50592;52.958;-7.470;2023-03-16T16:21:26;10.95;;;2.00;;
64252;SDS011;50592;52.958;-7.470;2023-03-16T16:23:59;14.60;;;2.13;;
64252;SDS011;50592;52.958;-7.470;2023-03-16T16:29:16;10.50;;;1.48;;
64252;SDS011;50592;52.958;-7.470;2023-03-16T16:31:49;14.63;;;5.32;;
64252;SDS011;50592;52.958;-7.470;2023-03-16T16:34:17;6.70;;;1.95;;
64252;SDS011;50592;52.958;-7.470;2023-03-16T16:36:52;13.02;;;2.90;;
64252;SDS011;50592;52.958;-7.470;2023-03-16T16:39:19;12.95;;;3.80;;
64252;SDS011;50592;52.958;-7.470;2023-03-16T16:41:51;7.38;;;2.85;;